Time;durP1;ratioP1;P1;durP2;ratioP2;P2;SDS_P1;SDS_P2;PMS_P1;PMS_P2;Temp;Humidity;BMP_temperature;BMP_pressure;BME280_temperature;BME280_humidity;BME280_pressure;Samples;Min_cycle;Max_cycle;Signal;HPM_P1;HPM_P2
2021/04/02 00:00:59;;;;;;;12.03;5.57;;;;;;;;;;5051544;28;37576;-75
2021/04/02 00:03:26;;;;;;;14.50;4.97;;;;;;;;;;5035504;28;37751;-75
2021/04/02 00:05:53;;;;;;;10.23;4.80;;;;;;;;;;5053014;28;36413;-76
2021/04/02 00:08:19;;;;;;;10.97;5.00;;;;;;;;;;5051913;28;39328;-75
2021/04/02 00:10:49;;;;;;;13.60;4.90;;;;;;;;;;5023369;28;37870;-75
2021/04/02 00:13:16;;;;;;;14.50;4.27;;;;;;;;;;5050669;28;36869;-75
2021/04/02 00:15:43;;;;;;;14.07;4.77;;;;;;;;;;5031305;28;37115;-75
2021/04/02 00:18:10;;;;;;;11.07;4.10;;;;;;;;;;5054324;28;37532;-75
2021/04/02 00:20:36;;;;;;;20.13;5.30;;;;;;;;;;5018419;28;38445;-75
2021/04/02 00:23:05;;;;;;;9.57;4.47;;;;;;;;;;5036974;28;36891;-75
2021/04/02 00:25:31;;;;;;;15.33;5.73;;;;;;;;;;5009358;28;38248;-75
2021/04/02 00:27:57;;;;;;;11.47;4.20;;;;;;;;;;5016565;28;37436;-75
2021/04/02 00:30:28;;;;;;;10.57;5.00;;;;;;;;;;5036197;28;37090;-75
2021/04/02 00:32:54;;;;;;;15.00;5.27;;;;;;;;;;5006890;28;38104;-75
2021/04/02 00:35:20;;;;;;;13.40;4.40;;;;;;;;;;5007410;28;36645;-75
2021/04/02 00:37:47;;;;;;;12.93;5.30;;;;;;;;;;5035834;28;38623;-75
2021/04/02 00:40:18;;;;;;;17.07;4.87;;;;;;;;;;5009296;28;38707;-75
2021/04/02 00:42:45;;;;;;;12.20;5.10;;;;;;;;;;5007309;28;38738;-75
2021/04/02 00:45:12;;;;;;;14.23;4.93;;;;;;;;;;5011719;28;36808;-75
2021/04/02 00:47:38;;;;;;;13.93;4.80;;;;;;;;;;5034716;28;37897;-75
2021/04/02 00:50:08;;;;;;;10.17;4.80;;;;;;;;;;5024718;28;38402;-75
2021/04/02 00:52:34;;;;;;;15.23;5.30;;;;;;;;;;5054258;28;37259;-76
2021/04/02 00:55:00;;;;;;;12.40;4.63;;;;;;;;;;5052045;28;36125;-75
2021/04/02 00:57:27;;;;;;;14.43;5.20;;;;;;;;;;5027480;28;47941;-75
2021/04/02 00:59:53;;;;;;;10.80;4.93;;;;;;;;;;5029204;28;37993;-75
2021/04/02 01:02:20;;;;;;;16.27;4.50;;;;;;;;;;5057179;28;36650;-75
2021/04/02 01:04:46;;;;;;;15.37;4.80;;;;;;;;;;5028483;28;37154;-75
2021/04/02 01:07:12;;;;;;;11.20;4.67;;;;;;;;;;5051841;28;40298;-75
2021/04/02 01:09:39;;;;;;;9.77;4.07;;;;;;;;;;5056384;28;37321;-75
2021/04/02 01:12:06;;;;;;;13.10;4.73;;;;;;;;;;5050224;28;38212;-75
2021/04/02 01:14:32;;;;;;;15.03;4.83;;;;;;;;;;5020709;28;37768;-75
2021/04/02 01:16:59;;;;;;;13.87;4.93;;;;;;;;;;5030150;28;38910;-75
2021/04/02 01:19:46;;;;;;;16.10;4.70;;;;;;;;;;5026053;28;38640;-75
2021/04/02 01:22:17;;;;;;;13.97;4.77;;;;;;;;;;5047458;28;37898;-75
2021/04/02 01:25:05;;;;;;;10.53;4.60;;;;;;;;;;5050178;28;36072;-75
2021/04/02 01:27:43;;;;;;;8.73;4.00;;;;;;;;;;5006256;28;48612;-75
2021/04/02 01:30:10;;;;;;;12.80;4.83;;;;;;;;;;5027789;28;37145;-75
2021/04/02 01:32:39;;;;;;;13.27;4.50;;;;;;;;;;5029395;28;36567;-75
2021/04/02 01:35:11;;;;;;;10.60;4.70;;;;;;;;;;5039161;28;36447;-75
2021/04/02 01:37:41;;;;;;;11.88;4.20;;;;;;;;;;5037104;28;37707;-75
2021/04/02 01:40:09;;;;;;;16.73;4.57;;;;;;;;;;5036021;28;36847;-75
2021/04/02 01:42:38;;;;;;;16.87;4.70;;;;;;;;;;5035571;28;37397;-75
2021/04/02 01:45:05;;;;;;;15.63;4.60;;;;;;;;;;5035688;28;35748;-75
2021/04/02 01:47:32;;;;;;;11.53;5.20;;;;;;;;;;5006137;28;38679;-75
2021/04/02 01:49:59;;;;;;;11.90;4.43;;;;;;;;;;5020479;28;37703;-75
2021/04/02 01:52:27;;;;;;;16.20;4.83;;;;;;;;;;5037352;28;37047;-75
2021/04/02 01:54:53;;;;;;;14.30;4.57;;;;;;;;;;5035766;28;35917;-75
2021/04/02 01:57:20;;;;;;;11.80;4.50;;;;;;;;;;5029996;28;36653;-75
2021/04/02 01:59:47;;;;;;;11.37;4.60;;;;;;;;;;5040616;28;37236;-75
2021/04/02 02:02:13;;;;;;;12.97;5.20;;;;;;;;;;5037372;28;37034;-75
2021/04/02 02:04:40;;;;;;;13.03;4.57;;;;;;;;;;5025054;28;35783;-74
2021/04/02 02:07:08;;;;;;;13.60;4.90;;;;;;;;;;5021021;28;40183;-75
2021/04/02 02:09:36;;;;;;;16.43;5.07;;;;;;;;;;5023150;28;37833;-75
2021/04/02 02:12:05;;;;;;;16.73;4.93;;;;;;;;;;5054566;28;37682;-75
2021/04/02 02:14:34;;;;;;;15.30;4.37;;;;;;;;;;5030943;28;35838;-75
2021/04/02 02:17:02;;;;;;;13.60;4.97;;;;;;;;;;5006648;28;36839;-75
2021/04/02 02:19:33;;;;;;;12.43;6.07;;;;;;;;;;5003081;28;48222;-75
2021/04/02 02:22:02;;;;;;;10.37;4.43;;;;;;;;;;5022744;28;37627;-75
2021/04/02 02:24:28;;;;;;;9.63;4.00;;;;;;;;;;5037074;28;47443;-75
2021/04/02 02:26:56;;;;;;;16.77;5.00;;;;;;;;;;5033711;28;38954;-75
2021/04/02 02:29:22;;;;;;;12.80;5.13;;;;;;;;;;5006946;28;38854;-75
2021/04/02 02:31:49;;;;;;;16.13;5.00;;;;;;;;;;5031601;28;36675;-75
2021/04/02 02:34:15;;;;;;;9.73;4.60;;;;;;;;;;5034403;28;37240;-75
2021/04/02 02:36:42;;;;;;;16.37;5.10;;;;;;;;;;5012257;28;37697;-75
2021/04/02 02:39:09;;;;;;;14.57;4.53;;;;;;;;;;5012426;28;37019;-75
2021/04/02 02:41:36;;;;;;;14.73;4.57;;;;;;;;;;5033108;28;37314;-75
2021/04/02 02:44:03;;;;;;;18.33;4.73;;;;;;;;;;5035830;28;35339;-75
2021/04/02 02:46:30;;;;;;;13.90;4.60;;;;;;;;;;5006913;28;36622;-75
2021/04/02 02:49:00;;;;;;;12.33;4.73;;;;;;;;;;5008774;28;38091;-75
2021/04/02 02:51:31;;;;;;;15.90;4.80;;;;;;;;;;5039866;28;37301;-75
2021/04/02 02:54:01;;;;;;;14.27;4.20;;;;;;;;;;5026813;28;36761;-75
2021/04/02 02:56:29;;;;;;;21.03;5.13;;;;;;;;;;5027016;28;48702;-75
2021/04/02 02:58:56;;;;;;;17.57;5.50;;;;;;;;;;5028286;28;38724;-75
2021/04/02 03:01:23;;;;;;;15.50;4.67;;;;;;;;;;5054254;28;37555;-75
2021/04/02 03:03:53;;;;;;;17.70;4.90;;;;;;;;;;5027949;27;36846;-75
2021/04/02 03:06:22;;;;;;;17.23;5.33;;;;;;;;;;5031701;28;39199;-75
2021/04/02 03:08:50;;;;;;;14.93;4.40;;;;;;;;;;5056247;28;38176;-75
2021/04/02 03:11:17;;;;;;;15.87;4.97;;;;;;;;;;5026010;28;38924;-75
2021/04/02 03:13:45;;;;;;;14.33;4.30;;;;;;;;;;5057683;28;36449;-75
2021/04/02 03:16:11;;;;;;;20.37;4.47;;;;;;;;;;5028164;28;38237;-75
2021/04/02 03:18:38;;;;;;;17.47;4.90;;;;;;;;;;5059466;28;38383;-75
2021/04/02 03:21:08;;;;;;;12.47;4.23;;;;;;;;;;5056116;28;36404;-75
2021/04/02 03:23:36;;;;;;;23.57;4.93;;;;;;;;;;5049553;28;36564;-75
2021/04/02 03:26:03;;;;;;;17.47;4.90;;;;;;;;;;5030776;28;38586;-75
2021/04/02 03:28:30;;;;;;;24.90;4.73;;;;;;;;;;5012477;28;45661;-75
2021/04/02 03:30:56;;;;;;;14.53;4.83;;;;;;;;;;5039321;28;40074;-75
2021/04/02 03:33:33;;;;;;;19.13;4.50;;;;;;;;;;5052558;28;35499;-75
2021/04/02 03:36:01;;;;;;;14.23;4.93;;;;;;;;;;5032600;28;39690;-75
2021/04/02 03:38:32;;;;;;;15.10;5.47;;;;;;;;;;5034127;28;47200;-75
2021/04/02 03:41:00;;;;;;;19.40;4.83;;;;;;;;;;5052198;28;37792;-75
2021/04/02 03:43:28;;;;;;;10.40;4.73;;;;;;;;;;5027359;28;36719;-75
2021/04/02 03:45:55;;;;;;;17.13;4.93;;;;;;;;;;5061839;28;38990;-75
2021/04/02 03:48:23;;;;;;;15.67;5.47;;;;;;;;;;5034809;28;38072;-75
2021/04/02 03:50:53;;;;;;;15.60;5.83;;;;;;;;;;5030375;28;38599;-75
2021/04/02 03:53:26;;;;;;;15.03;5.17;;;;;;;;;;5058260;28;36820;-75
2021/04/02 03:55:53;;;;;;;16.10;5.23;;;;;;;;;;5028221;28;39683;-75
2021/04/02 03:58:21;;;;;;;13.70;5.33;;;;;;;;;;5052431;28;38850;-75
2021/04/02 04:01:00;;;;;;;16.97;5.10;;;;;;;;;;5022450;28;38007;-75
2021/04/02 04:03:26;;;;;;;15.33;4.93;;;;;;;;;;5004454;28;37605;-75
2021/04/02 04:05:54;;;;;;;14.67;5.00;;;;;;;;;;5035260;28;38019;-75
2021/04/02 04:08:21;;;;;;;13.10;5.43;;;;;;;;;;5005803;28;36815;-75
2021/04/02 04:10:48;;;;;;;16.67;5.23;;;;;;;;;;5035887;28;36545;-75
2021/04/02 04:13:16;;;;;;;14.47;6.13;;;;;;;;;;5006410;28;36776;-75
2021/04/02 04:15:43;;;;;;;19.47;5.83;;;;;;;;;;5015883;28;38227;-75
2021/04/02 04:18:10;;;;;;;19.13;5.17;;;;;;;;;;5002510;28;38606;-75
2021/04/02 04:20:36;;;;;;;15.33;5.20;;;;;;;;;;5004778;28;37587;-75
2021/04/02 04:23:03;;;;;;;12.50;4.90;;;;;;;;;;5010531;28;35774;-75
2021/04/02 04:25:30;;;;;;;14.10;4.70;;;;;;;;;;5048198;28;38083;-75
2021/04/02 04:27:56;;;;;;;17.23;5.20;;;;;;;;;;5027137;28;38238;-75
2021/04/02 04:30:25;;;;;;;16.00;6.13;;;;;;;;;;5024135;28;37095;-75
2021/04/02 04:32:53;;;;;;;18.63;5.10;;;;;;;;;;5052774;28;36493;-75
2021/04/02 04:35:20;;;;;;;21.23;5.63;;;;;;;;;;5028612;28;37776;-75
2021/04/02 04:37:47;;;;;;;17.63;4.80;;;;;;;;;;5027621;28;38363;-75
2021/04/02 04:40:18;;;;;;;13.83;4.47;;;;;;;;;;5027392;28;38406;-75
2021/04/02 04:42:46;;;;;;;13.53;4.23;;;;;;;;;;5052122;28;36763;-75
2021/04/02 04:45:14;;;;;;;16.90;4.50;;;;;;;;;;5019761;28;39993;-75
2021/04/02 04:47:40;;;;;;;21.97;4.80;;;;;;;;;;5048596;28;38721;-75
2021/04/02 04:50:07;;;;;;;20.83;4.40;;;;;;;;;;5053620;28;37104;-75
2021/04/02 04:52:38;;;;;;;13.30;4.10;;;;;;;;;;5052430;28;35740;-75
2021/04/02 04:55:07;;;;;;;18.47;3.97;;;;;;;;;;5049181;28;39414;-75
2021/04/02 04:57:35;;;;;;;13.67;4.20;;;;;;;;;;5027740;28;38709;-75
2021/04/02 05:00:02;;;;;;;13.33;4.33;;;;;;;;;;5020028;28;38802;-75
2021/04/02 05:02:29;;;;;;;14.63;4.47;;;;;;;;;;5036536;28;47552;-75
2021/04/02 05:04:56;;;;;;;18.43;4.23;;;;;;;;;;5052164;28;38327;-75
2021/04/02 05:07:24;;;;;;;10.47;2.87;;;;;;;;;;5051296;28;38674;-75
2021/04/02 05:09:51;;;;;;;17.27;4.10;;;;;;;;;;5053677;28;36717;-75
2021/04/02 05:12:18;;;;;;;15.53;3.57;;;;;;;;;;5027039;28;36487;-75
2021/04/02 05:14:45;;;;;;;17.60;4.13;;;;;;;;;;5051791;28;36988;-75
2021/04/02 05:17:12;;;;;;;10.67;3.10;;;;;;;;;;5031744;28;37501;-75
2021/04/02 05:19:40;;;;;;;11.97;3.20;;;;;;;;;;5052789;28;36787;-75
2021/04/02 05:22:09;;;;;;;12.17;2.80;;;;;;;;;;5048874;28;38099;-75
2021/04/02 05:24:36;;;;;;;10.00;3.30;;;;;;;;;;5013739;28;38592;-75
2021/04/02 05:27:03;;;;;;;12.40;3.07;;;;;;;;;;5057577;28;37738;-75
2021/04/02 05:29:29;;;;;;;11.53;2.93;;;;;;;;;;5020802;28;38056;-76
2021/04/02 05:31:56;;;;;;;10.87;3.57;;;;;;;;;;5052508;28;35623;-75
2021/04/02 05:34:22;;;;;;;11.30;3.27;;;;;;;;;;5022662;28;39051;-75
2021/04/02 05:36:49;;;;;;;13.67;3.40;;;;;;;;;;5049796;28;36471;-75
2021/04/02 05:39:15;;;;;;;14.07;2.93;;;;;;;;;;5020503;28;38591;-75
2021/04/02 05:41:47;;;;;;;21.03;3.63;;;;;;;;;;5026405;28;38302;-75
2021/04/02 05:44:15;;;;;;;13.80;3.53;;;;;;;;;;5032083;28;38899;-75
2021/04/02 05:46:44;;;;;;;13.50;3.87;;;;;;;;;;5051906;28;36528;-74
2021/04/02 05:49:11;;;;;;;12.97;3.70;;;;;;;;;;5049252;28;36843;-75
2021/04/02 05:51:38;;;;;;;16.47;3.43;;;;;;;;;;5042343;28;37200;-75
2021/04/02 05:54:07;;;;;;;14.17;3.10;;;;;;;;;;5054940;28;37823;-75
2021/04/02 05:56:34;;;;;;;15.53;3.67;;;;;;;;;;5035812;28;35225;-75
2021/04/02 05:59:00;;;;;;;13.30;2.90;;;;;;;;;;5049359;28;38243;-76
2021/04/02 06:01:27;;;;;;;20.17;3.70;;;;;;;;;;5052129;28;37284;-75
2021/04/02 06:03:54;;;;;;;11.67;2.50;;;;;;;;;;5032665;28;37788;-76
2021/04/02 06:06:21;;;;;;;12.00;3.17;;;;;;;;;;5047177;28;39593;-76
2021/04/02 06:08:47;;;;;;;11.17;2.47;;;;;;;;;;5021923;28;37409;-76
2021/04/02 06:11:14;;;;;;;14.57;2.73;;;;;;;;;;5022664;28;35108;-76
2021/04/02 06:13:40;;;;;;;15.27;2.80;;;;;;;;;;5047437;28;37698;-76
2021/04/02 06:16:07;;;;;;;11.93;2.63;;;;;;;;;;5033251;28;39514;-75
2021/04/02 06:18:40;;;;;;;17.20;3.97;;;;;;;;;;5013543;28;38828;-76
2021/04/02 06:21:07;;;;;;;15.10;3.40;;;;;;;;;;5043971;28;37349;-76
2021/04/02 06:23:34;;;;;;;12.10;2.53;;;;;;;;;;5045669;28;38048;-74
2021/04/02 06:26:03;;;;;;;11.10;2.80;;;;;;;;;;5042685;28;38359;-75
2021/04/02 06:28:31;;;;;;;10.80;3.30;;;;;;;;;;5020331;28;48703;-75
2021/04/02 06:31:03;;;;;;;9.20;2.70;;;;;;;;;;5021471;28;36913;-75
2021/04/02 06:33:34;;;;;;;11.73;2.70;;;;;;;;;;5013473;28;48758;-75
2021/04/02 06:36:00;;;;;;;10.90;2.90;;;;;;;;;;5022270;28;38758;-75
2021/04/02 06:38:31;;;;;;;9.63;2.57;;;;;;;;;;5013127;28;37767;-75
2021/04/02 06:41:01;;;;;;;12.33;2.70;;;;;;;;;;5027337;28;37687;-75
2021/04/02 06:43:34;;;;;;;12.97;2.40;;;;;;;;;;5022134;28;38541;-76
2021/04/02 06:46:04;;;;;;;7.50;2.50;;;;;;;;;;5003419;28;38343;-74
2021/04/02 06:48:31;;;;;;;11.60;2.80;;;;;;;;;;5026797;28;47521;-75
2021/04/02 06:50:57;;;;;;;12.97;3.20;;;;;;;;;;5019903;28;35950;-75
2021/04/02 06:53:25;;;;;;;7.70;2.20;;;;;;;;;;5017069;28;39099;-74
2021/04/02 06:55:52;;;;;;;14.27;2.50;;;;;;;;;;5038556;28;37810;-75
2021/04/02 06:58:22;;;;;;;13.87;3.20;;;;;;;;;;5020064;28;37449;-74
2021/04/02 07:00:51;;;;;;;13.20;2.07;;;;;;;;;;5055169;28;37759;-74
2021/04/02 07:03:18;;;;;;;8.70;2.60;;;;;;;;;;5034452;28;38835;-76
2021/04/02 07:05:45;;;;;;;13.33;2.90;;;;;;;;;;5039355;28;39788;-74
2021/04/02 07:08:15;;;;;;;9.53;2.30;;;;;;;;;;5055159;28;39256;-74
2021/04/02 07:10:42;;;;;;;10.03;1.90;;;;;;;;;;5019727;28;37555;-75
2021/04/02 07:13:10;;;;;;;11.67;2.20;;;;;;;;;;5020687;28;39475;-76
2021/04/02 07:15:37;;;;;;;12.00;2.50;;;;;;;;;;5023474;28;38016;-76
2021/04/02 07:18:06;;;;;;;13.97;2.07;;;;;;;;;;5020716;28;37969;-76
2021/04/02 07:20:33;;;;;;;13.87;2.43;;;;;;;;;;5023152;28;36783;-76
2021/04/02 07:22:59;;;;;;;11.67;2.20;;;;;;;;;;5055284;28;37661;-76
2021/04/02 07:25:26;;;;;;;7.13;2.03;;;;;;;;;;5036922;28;37278;-76
2021/04/02 07:27:53;;;;;;;11.63;2.57;;;;;;;;;;5023808;28;37785;-76
2021/04/02 07:30:21;;;;;;;9.47;1.80;;;;;;;;;;5040979;28;35736;-75
2021/04/02 07:32:47;;;;;;;8.67;2.17;;;;;;;;;;5037506;28;37700;-76
2021/04/02 07:35:18;;;;;;;8.17;1.77;;;;;;;;;;5057242;28;37112;-76
2021/04/02 07:37:48;;;;;;;11.67;2.30;;;;;;;;;;5038569;28;37447;-76
2021/04/02 07:40:15;;;;;;;5.90;2.47;;;;;;;;;;5052335;28;35749;-75
2021/04/02 07:42:48;;;;;;;8.23;2.80;;;;;;;;;;5023205;28;39040;-76
2021/04/02 07:45:18;;;;;;;10.02;2.30;;;;;;;;;;5053942;28;37781;-75
2021/04/02 07:47:49;;;;;;;10.47;2.40;;;;;;;;;;5039564;28;36742;-75
2021/04/02 07:50:16;;;;;;;10.70;2.27;;;;;;;;;;5020162;28;36340;-75
2021/04/02 07:52:43;;;;;;;13.33;2.93;;;;;;;;;;5052239;28;37652;-76
2021/04/02 07:55:11;;;;;;;6.70;2.23;;;;;;;;;;5022199;28;39275;-77
2021/04/02 07:57:48;;;;;;;13.73;3.03;;;;;;;;;;5024086;28;37806;-76
2021/04/02 08:00:15;;;;;;;13.30;2.90;;;;;;;;;;5056981;28;35365;-76
2021/04/02 08:02:43;;;;;;;10.70;3.67;;;;;;;;;;5053245;28;38667;-76
2021/04/02 08:05:16;;;;;;;10.37;2.80;;;;;;;;;;5053580;28;37929;-76
2021/04/02 08:07:43;;;;;;;11.17;2.27;;;;;;;;;;5019523;28;37498;-76
2021/04/02 08:10:14;;;;;;;11.43;3.17;;;;;;;;;;5050286;28;35662;-76
2021/04/02 08:12:40;;;;;;;13.60;2.53;;;;;;;;;;5038268;28;38190;-76
2021/04/02 08:15:08;;;;;;;12.53;2.50;;;;;;;;;;5009827;28;40029;-75
2021/04/02 08:17:35;;;;;;;13.00;2.67;;;;;;;;;;5053535;28;36645;-76
2021/04/02 08:20:10;;;;;;;15.70;2.83;;;;;;;;;;5037019;28;35981;-75
2021/04/02 08:22:37;;;;;;;10.63;2.50;;;;;;;;;;5053823;28;38831;-75
2021/04/02 08:25:08;;;;;;;11.50;2.97;;;;;;;;;;5054581;28;37250;-76
2021/04/02 08:27:34;;;;;;;11.83;2.90;;;;;;;;;;4998689;28;48727;-79
2021/04/02 08:30:02;;;;;;;8.40;2.40;;;;;;;;;;5035979;28;38382;-76
2021/04/02 08:32:32;;;;;;;9.37;2.57;;;;;;;;;;5003249;28;49773;-77
2021/04/02 08:34:59;;;;;;;10.33;3.10;;;;;;;;;;5002822;28;39592;-79
2021/04/02 08:37:26;;;;;;;12.23;2.67;;;;;;;;;;5044857;28;37976;-80
2021/04/02 08:39:53;;;;;;;8.63;2.60;;;;;;;;;;5047046;28;38406;-78
2021/04/02 08:42:23;;;;;;;16.70;3.77;;;;;;;;;;5035958;28;38142;-77
2021/04/02 08:44:49;;;;;;;14.40;2.57;;;;;;;;;;5053462;28;37985;-77
2021/04/02 08:47:17;;;;;;;15.40;2.67;;;;;;;;;;5047664;28;37514;-76
2021/04/02 08:49:45;;;;;;;8.63;2.33;;;;;;;;;;5019271;28;37461;-76
2021/04/02 08:52:14;;;;;;;9.83;2.73;;;;;;;;;;5016909;28;38950;-76
2021/04/02 08:54:42;;;;;;;12.00;2.90;;;;;;;;;;5044660;28;38401;-76
2021/04/02 08:57:10;;;;;;;10.10;2.57;;;;;;;;;;4998588;28;38912;-75
2021/04/02 08:59:38;;;;;;;8.83;2.27;;;;;;;;;;5021181;28;35745;-77
2021/04/02 09:02:05;;;;;;;8.77;2.20;;;;;;;;;;5002306;28;38877;-75
2021/04/02 09:04:31;;;;;;;5.90;2.00;;;;;;;;;;5029043;28;38675;-77
2021/04/02 09:06:58;;;;;;;8.67;1.90;;;;;;;;;;5031116;28;36543;-82
2021/04/02 09:09:30;;;;;;;11.10;2.17;;;;;;;;;;5015684;28;37953;-80
2021/04/02 09:11:56;;;;;;;7.25;2.05;;;;;;;;;;5042487;28;39050;-81
2021/04/02 09:14:26;;;;;;;8.40;2.85;;;;;;;;;;5038128;28;38793;-82
2021/04/02 09:16:58;;;;;;;11.40;2.60;;;;;;;;;;5061889;28;37778;-81
2021/04/02 09:19:26;;;;;;;12.63;2.53;;;;;;;;;;5051714;28;35828;-79
2021/04/02 09:21:53;;;;;;;8.60;2.88;;;;;;;;;;5004492;28;39498;-79
2021/04/02 09:24:20;;;;;;;12.40;2.70;;;;;;;;;;5041312;28;37956;-79
2021/04/02 09:26:46;;;;;;;11.95;3.38;;;;;;;;;;5001707;28;38494;-80
2021/04/02 09:29:14;;;;;;;11.25;2.78;;;;;;;;;;5004725;28;37802;-80
2021/04/02 09:31:41;;;;;;;13.55;2.55;;;;;;;;;;5042195;28;37749;-79
2021/04/02 09:34:13;;;;;;;13.80;3.40;;;;;;;;;;5003734;28;39447;-78
2021/04/02 09:36:42;;;;;;;13.57;3.50;;;;;;;;;;5011908;28;38541;-79
2021/04/02 09:39:10;;;;;;;10.27;3.27;;;;;;;;;;5023267;28;36912;-79
2021/04/02 09:41:37;;;;;;;9.15;3.15;;;;;;;;;;5024675;28;38849;-78
2021/04/02 09:44:08;;;;;;;8.32;2.80;;;;;;;;;;5056778;28;37317;-78
2021/04/02 09:46:42;;;;;;;12.02;3.30;;;;;;;;;;5037250;28;38077;-80
2021/04/02 09:49:15;;;;;;;10.68;2.92;;;;;;;;;;5057930;28;36489;-80
2021/04/02 09:51:48;;;;;;;10.55;3.10;;;;;;;;;;5028254;28;39085;-78
2021/04/02 09:54:15;;;;;;;11.68;2.50;;;;;;;;;;5026434;28;38338;-78
2021/04/02 09:56:42;;;;;;;14.52;2.83;;;;;;;;;;5042457;28;38256;-77
2021/04/02 09:59:09;;;;;;;11.30;2.72;;;;;;;;;;5026049;28;36687;-79
2021/04/02 10:01:36;;;;;;;11.30;3.00;;;;;;;;;;5027198;28;38365;-81
2021/04/02 10:04:03;;;;;;;14.53;3.50;;;;;;;;;;5057403;28;37897;-80
2021/04/02 10:06:29;;;;;;;8.23;2.93;;;;;;;;;;5041944;28;37686;-80
2021/04/02 10:08:56;;;;;;;11.88;2.90;;;;;;;;;;5056482;28;37055;-80
2021/04/02 10:11:23;;;;;;;8.82;2.83;;;;;;;;;;5028808;28;38559;-80
2021/04/02 10:13:50;;;;;;;7.80;2.30;;;;;;;;;;5046052;28;38937;-80
2021/04/02 10:16:17;;;;;;;12.30;2.57;;;;;;;;;;5060588;28;37857;-80
2021/04/02 10:18:47;;;;;;;8.77;2.58;;;;;;;;;;5061747;28;36582;-81
2021/04/02 10:21:14;;;;;;;9.80;2.33;;;;;;;;;;5030547;28;39919;-81
2021/04/02 10:23:40;;;;;;;10.43;2.20;;;;;;;;;;5044667;28;37246;-81
2021/04/02 10:26:07;;;;;;;9.23;2.42;;;;;;;;;;5046765;28;37425;-81
2021/04/02 10:28:33;;;;;;;10.20;2.35;;;;;;;;;;5066586;28;36472;-79
2021/04/02 10:31:00;;;;;;;8.60;2.53;;;;;;;;;;5031274;28;38736;-78
2021/04/02 10:33:26;;;;;;;12.05;2.90;;;;;;;;;;5029866;28;39271;-77
2021/04/02 10:35:53;;;;;;;10.65;2.33;;;;;;;;;;5028943;28;37294;-77
2021/04/02 10:38:20;;;;;;;9.63;2.53;;;;;;;;;;5055703;28;36084;-79
2021/04/02 10:40:46;;;;;;;10.68;3.25;;;;;;;;;;5025784;28;40195;-79
2021/04/02 10:43:12;;;;;;;15.27;2.65;;;;;;;;;;5032748;28;37825;-78
2021/04/02 10:45:40;;;;;;;11.20;2.42;;;;;;;;;;5062610;28;36863;-79
2021/04/02 10:48:07;;;;;;;9.25;2.30;;;;;;;;;;5028777;28;37292;-78
2021/04/02 10:50:33;;;;;;;14.07;3.13;;;;;;;;;;5060025;28;38451;-79
2021/04/02 10:52:59;;;;;;;13.50;3.30;;;;;;;;;;5053560;28;38751;-78
2021/04/02 10:55:26;;;;;;;19.40;3.05;;;;;;;;;;5038591;28;37632;-79
2021/04/02 10:57:52;;;;;;;9.30;2.45;;;;;;;;;;5054563;28;37142;-78
2021/04/02 11:00:20;;;;;;;14.77;3.00;;;;;;;;;;5037184;28;38006;-78
2021/04/02 11:02:46;;;;;;;14.23;2.58;;;;;;;;;;5051310;28;37285;-78
2021/04/02 11:05:13;;;;;;;13.52;3.22;;;;;;;;;;5019967;28;37517;-78
2021/04/02 11:07:39;;;;;;;12.57;2.88;;;;;;;;;;5032291;28;35618;-80
2021/04/02 11:10:07;;;;;;;12.07;2.75;;;;;;;;;;5055789;28;38199;-78
2021/04/02 11:12:33;;;;;;;12.48;2.80;;;;;;;;;;5054407;28;38037;-78
2021/04/02 11:15:00;;;;;;;13.05;2.13;;;;;;;;;;5053303;28;38668;-78
2021/04/02 11:17:27;;;;;;;9.85;2.85;;;;;;;;;;5027271;28;36855;-78
2021/04/02 11:19:54;;;;;;;12.10;2.72;;;;;;;;;;5036255;28;38280;-79
2021/04/02 11:22:20;;;;;;;15.00;3.15;;;;;;;;;;5022334;28;38653;-79
2021/04/02 11:24:47;;;;;;;14.88;2.85;;;;;;;;;;5021940;28;37809;-78
2021/04/02 11:27:14;;;;;;;15.43;2.83;;;;;;;;;;5021839;28;36781;-78
2021/04/02 11:29:40;;;;;;;10.23;2.17;;;;;;;;;;5038917;28;38878;-79
2021/04/02 11:32:07;;;;;;;12.38;2.72;;;;;;;;;;5055030;28;37226;-79
2021/04/02 11:34:33;;;;;;;9.93;2.10;;;;;;;;;;5019341;28;38449;-80
2021/04/02 11:37:00;;;;;;;13.10;2.70;;;;;;;;;;5056669;28;36867;-79
2021/04/02 11:39:26;;;;;;;9.18;2.20;;;;;;;;;;5055779;28;38946;-78
2021/04/02 11:41:53;;;;;;;9.75;2.40;;;;;;;;;;5055757;28;37101;-78
2021/04/02 11:44:19;;;;;;;8.30;2.22;;;;;;;;;;5025059;28;39116;-78
2021/04/02 11:46:46;;;;;;;9.88;2.72;;;;;;;;;;5037646;28;37013;-78
2021/04/02 11:49:12;;;;;;;24.50;4.68;;;;;;;;;;5017293;28;39161;-77
2021/04/02 11:51:39;;;;;;;13.15;3.38;;;;;;;;;;5054388;28;37721;-78
2021/04/02 11:54:06;;;;;;;15.23;3.08;;;;;;;;;;5048630;28;36645;-79
2021/04/02 11:56:32;;;;;;;12.00;3.28;;;;;;;;;;5022467;28;37954;-79
2021/04/02 11:58:58;;;;;;;12.23;2.40;;;;;;;;;;5060096;28;37928;-77
2021/04/02 12:01:25;;;;;;;18.98;3.78;;;;;;;;;;5024187;28;38965;-78
2021/04/02 12:03:51;;;;;;;13.60;3.22;;;;;;;;;;5041382;28;38805;-78
2021/04/02 12:06:18;;;;;;;14.93;2.67;;;;;;;;;;5034800;28;36754;-76
2021/04/02 12:08:44;;;;;;;15.52;2.90;;;;;;;;;;5052690;28;39558;-78
2021/04/02 12:11:10;;;;;;;12.60;2.97;;;;;;;;;;5052124;28;38105;-77
2021/04/02 12:13:37;;;;;;;13.60;3.10;;;;;;;;;;5034548;28;36972;-78
2021/04/02 12:16:03;;;;;;;8.05;2.70;;;;;;;;;;5056552;28;36394;-78
2021/04/02 12:18:30;;;;;;;18.57;3.17;;;;;;;;;;5040294;28;39119;-77
2021/04/02 12:20:56;;;;;;;14.30;2.87;;;;;;;;;;5025489;28;41405;-78
2021/04/02 12:23:23;;;;;;;18.70;3.27;;;;;;;;;;5028366;28;39069;-80
2021/04/02 12:25:49;;;;;;;12.87;2.53;;;;;;;;;;5045289;28;36359;-80
2021/04/02 12:28:16;;;;;;;8.33;2.13;;;;;;;;;;5026280;28;38968;-82
2021/04/02 12:30:42;;;;;;;15.57;2.08;;;;;;;;;;5061581;28;38315;-80
2021/04/02 12:33:09;;;;;;;16.23;2.55;;;;;;;;;;5058827;28;36671;-79
2021/04/02 12:35:36;;;;;;;12.60;2.28;;;;;;;;;;5055047;28;35914;-82
2021/04/02 12:38:08;;;;;;;14.68;2.38;;;;;;;;;;5051777;28;38456;-80
2021/04/02 12:40:35;;;;;;;13.43;2.95;;;;;;;;;;5061069;28;37936;-80
2021/04/02 12:43:01;;;;;;;13.02;2.45;;;;;;;;;;5026313;28;38149;-80
2021/04/02 12:45:28;;;;;;;11.18;2.42;;;;;;;;;;5040353;28;48007;-79
2021/04/02 12:47:55;;;;;;;13.55;2.83;;;;;;;;;;5053966;28;37675;-80
2021/04/02 12:50:23;;;;;;;14.30;3.28;;;;;;;;;;5039472;28;41712;-78
2021/04/02 12:52:50;;;;;;;10.95;2.55;;;;;;;;;;5036901;28;38132;-80
2021/04/02 12:55:18;;;;;;;11.38;2.67;;;;;;;;;;5022254;28;39725;-79
2021/04/02 12:57:44;;;;;;;13.05;3.10;;;;;;;;;;5054126;28;37577;-80
2021/04/02 13:00:12;;;;;;;13.70;2.20;;;;;;;;;;5040771;28;37361;-79
2021/04/02 13:02:39;;;;;;;16.33;2.40;;;;;;;;;;5057398;28;37644;-82
2021/04/02 13:05:06;;;;;;;14.20;2.40;;;;;;;;;;5040049;28;35656;-79
2021/04/02 13:07:32;;;;;;;9.97;1.90;;;;;;;;;;5024884;28;39871;-79
2021/04/02 13:09:59;;;;;;;10.95;1.88;;;;;;;;;;5041019;28;37576;-80
2021/04/02 13:12:25;;;;;;;15.93;2.75;;;;;;;;;;5025358;28;37950;-79
2021/04/02 13:14:52;;;;;;;7.57;2.22;;;;;;;;;;5056011;28;36255;-80
2021/04/02 13:17:18;;;;;;;13.43;2.10;;;;;;;;;;5041351;28;38470;-80
2021/04/02 13:19:44;;;;;;;8.48;2.30;;;;;;;;;;5057717;28;38735;-79
2021/04/02 13:22:11;;;;;;;9.75;3.13;;;;;;;;;;5027275;28;37934;-79
2021/04/02 13:24:38;;;;;;;12.40;3.83;;;;;;;;;;5043743;28;38031;-79
2021/04/02 13:27:05;;;;;;;12.67;2.63;;;;;;;;;;5025522;28;39605;-79
2021/04/02 13:29:31;;;;;;;12.17;2.20;;;;;;;;;;5030397;28;39530;-80
2021/04/02 13:31:58;;;;;;;17.77;2.70;;;;;;;;;;5028460;28;37625;-80
2021/04/02 13:34:24;;;;;;;10.13;1.80;;;;;;;;;;5024520;28;37986;-80
2021/04/02 13:36:50;;;;;;;7.80;1.37;;;;;;;;;;5038528;28;39506;-80
2021/04/02 13:39:17;;;;;;;13.95;2.33;;;;;;;;;;5057337;28;38075;-80
2021/04/02 13:41:43;;;;;;;11.40;2.60;;;;;;;;;;5049232;28;36658;-79
2021/04/02 13:44:10;;;;;;;11.20;2.20;;;;;;;;;;5055663;28;35895;-80
2021/04/02 13:46:36;;;;;;;11.00;1.97;;;;;;;;;;5043071;28;38507;-80
2021/04/02 13:49:03;;;;;;;9.13;2.00;;;;;;;;;;5059458;28;37372;-80
2021/04/02 13:51:29;;;;;;;11.03;1.93;;;;;;;;;;5046491;28;37631;-78
2021/04/02 13:53:56;;;;;;;10.87;2.47;;;;;;;;;;5029141;28;37099;-79
2021/04/02 13:56:22;;;;;;;16.70;2.87;;;;;;;;;;5026964;28;40644;-82
2021/04/02 13:58:49;;;;;;;13.53;2.60;;;;;;;;;;5004420;28;37170;-79
2021/04/02 14:01:15;;;;;;;11.70;2.50;;;;;;;;;;5032918;28;37911;-79
2021/04/02 14:03:41;;;;;;;10.57;1.70;;;;;;;;;;5041044;28;35555;-80
2021/04/02 14:06:08;;;;;;;13.23;2.23;;;;;;;;;;5017729;28;38110;-80
2021/04/02 14:08:34;;;;;;;12.47;2.13;;;;;;;;;;5023776;28;37266;-79
2021/04/02 14:11:00;;;;;;;12.97;1.70;;;;;;;;;;5023291;28;37487;-76
2021/04/02 14:13:27;;;;;;;11.73;1.80;;;;;;;;;;5032050;28;36569;-78
2021/04/02 14:15:53;;;;;;;14.73;1.80;;;;;;;;;;5060408;28;37589;-79
2021/04/02 14:18:20;;;;;;;4.93;1.30;;;;;;;;;;5029083;28;38626;-80
2021/04/02 14:20:48;;;;;;;8.27;1.52;;;;;;;;;;5030725;28;38128;-77
2021/04/02 14:23:14;;;;;;;5.77;1.20;;;;;;;;;;5066474;28;36845;-80
2021/04/02 14:25:40;;;;;;;13.03;1.77;;;;;;;;;;5029328;28;38511;-81
2021/04/02 14:28:08;;;;;;;10.43;1.87;;;;;;;;;;5032751;28;38908;-79
2021/04/02 14:30:39;;;;;;;18.57;2.67;;;;;;;;;;5034573;28;37230;-79
2021/04/02 14:33:06;;;;;;;11.05;2.03;;;;;;;;;;5048662;28;35382;-76